Time;durP1;ratioP1;P1;durP2;ratioP2;P2;SDS_P1;SDS_P2;PMS_P1;PMS_P2;Temp;Humidity;BMP_temperature;BMP_pressure;BME280_temperature;BME280_humidity;BME280_pressure;Samples;Min_cycle;Max_cycle;Signal;HPM_P1;HPM_P2
2022/05/09 00:00:01;;;;;;;;;;;;;;;21.59;42.89;102333.56;5120077;27;5064;-62
2022/05/09 00:02:36;;;;;;;;;;;;;;;21.58;42.82;102329.19;5119723;27;4098;-62
2022/05/09 00:05:03;;;;;;;;;;;;;;;21.58;42.74;102334.94;5118821;27;4459;-62
2022/05/09 00:07:29;;;;;;;;;;;;;;;21.57;42.96;102336.31;5115442;27;4527;-62
2022/05/09 00:09:56;;;;;;;;;;;;;;;21.56;42.93;102329.03;5115836;27;4276;-62
2022/05/09 00:12:22;;;;;;;;;;;;;;;21.57;42.83;102333.44;5116535;27;4163;-62
2022/05/09 00:14:48;;;;;;;;;;;;;;;21.56;42.99;102334.81;5115435;27;4064;-62
2022/05/09 00:17:15;;;;;;;;;;;;;;;21.56;43.07;102328.31;5120639;27;4220;-62
2022/05/09 00:19:41;;;;;;;;;;;;;;;21.55;42.79;102333.28;5116004;27;4046;-62
2022/05/09 00:22:07;;;;;;;;;;;;;;;21.54;43.03;102337.56;5118464;27;4213;-62
2022/05/09 00:24:34;;;;;;;;;;;;;;;21.55;42.98;102341.94;5118355;27;4150;-62
2022/05/09 00:27:00;;;;;;;;;;;;;;;21.53;42.82;102331.03;5118012;27;4085;-62
2022/05/09 00:29:27;;;;;;;;;;;;;;;21.53;42.76;102336.81;5119278;27;4189;-62
2022/05/09 00:31:55;;;;;;;;;;;;;;;21.53;42.88;102336.03;5117692;27;4238;-62
2022/05/09 00:34:21;;;;;;;;;;;;;;;21.53;42.89;102330.28;5117782;27;4172;-62
2022/05/09 00:36:48;;;;;;;;;;;;;;;21.52;43.06;102332.41;5116626;27;4345;-62
2022/05/09 00:39:15;;;;;;;;;;;;;;;21.52;43.01;102331.66;5118890;27;4512;-62
2022/05/09 00:41:42;;;;;;;;;;;;;;;21.52;42.86;102337.44;5115774;27;4238;-62
2022/05/09 00:44:17;;;;;;;;;;;;;;;21.52;42.92;102328.78;5119792;27;4150;-63
2022/05/09 00:46:45;;;;;;;;;;;;;;;21.52;43.01;102334.53;5116823;27;4175;-62
2022/05/09 00:49:17;;;;;;;;;;;;;;;21.51;42.85;102333.06;5119491;27;4175;-63
2022/05/09 00:51:45;;;;;;;;;;;;;;;21.51;42.82;102333.06;5119153;27;4135;-62
2022/05/09 00:54:16;;;;;;;;;;;;;;;21.51;42.80;102338.81;5119930;27;5554;-62
2022/05/09 00:56:43;;;;;;;;;;;;;;;21.51;42.86;102339.56;5115459;27;4217;-62
2022/05/09 00:59:11;;;;;;;;;;;;;;;21.51;42.97;102333.78;5101259;27;5321;-63
2022/05/09 01:01:38;;;;;;;;;;;;;;;21.51;42.99;102345.31;5118979;27;4046;-62
2022/05/09 01:04:07;;;;;;;;;;;;;;;21.50;43.07;102343.81;5105851;27;4157;-63
2022/05/09 01:06:34;;;;;;;;;;;;;;;21.49;42.78;102347.31;5101007;27;4341;-62
2022/05/09 01:09:00;;;;;;;;;;;;;;;21.49;42.87;102335.78;5120226;27;4020;-62
2022/05/09 01:11:27;;;;;;;;;;;;;;;21.48;42.90;102332.13;5114505;27;4165;-62
2022/05/09 01:13:54;;;;;;;;;;;;;;;21.48;42.85;102345.81;5103979;27;4264;-62
2022/05/09 01:16:20;;;;;;;;;;;;;;;21.47;43.07;102350.06;5117966;27;4220;-62
2022/05/09 01:18:48;;;;;;;;;;;;;;;21.47;42.86;102344.31;5114821;27;5300;-62
2022/05/09 01:21:27;;;;;;;;;;;;;;;21.45;42.85;102341.28;5087918;27;4179;-63
2022/05/09 01:23:53;;;;;;;;;;;;;;;21.45;43.09;102347.81;5117804;27;4313;-62
2022/05/09 01:26:20;;;;;;;;;;;;;;;21.47;43.02;102347.19;5116853;27;4171;-62
2022/05/09 01:28:46;;;;;;;;;;;;;;;21.46;42.88;102342.78;5112974;27;5515;-62
2022/05/09 01:31:13;;;;;;;;;;;;;;;21.45;42.92;102335.53;5112506;27;4074;-62
2022/05/09 01:33:40;;;;;;;;;;;;;;;21.45;42.99;102342.03;5117402;27;4257;-62
2022/05/09 01:36:14;;;;;;;;;;;;;;;21.47;42.80;102341.44;5118137;27;4079;-62
2022/05/09 01:38:48;;;;;;;;;;;;;;;21.45;42.98;102347.06;5117025;27;5222;-62
2022/05/09 01:41:14;;;;;;;;;;;;;;;21.45;42.98;102353.56;5112534;27;4128;-62
2022/05/09 01:43:41;;;;;;;;;;;;;;;21.45;43.01;102352.81;5118926;27;4146;-62
2022/05/09 01:46:09;;;;;;;;;;;;;;;21.44;43.00;102354.19;5115642;27;5329;-62
2022/05/09 01:51:20;;;;;;;;;;;;;;;21.39;43.01;102349.50;5118323;27;4232;-62
2022/05/09 01:53:53;;;;;;;;;;;;;;;21.38;43.02;102348.00;5118358;27;4240;-62
2022/05/09 01:56:20;;;;;;;;;;;;;;;21.39;43.15;102347.38;5114296;27;4183;-62
2022/05/09 01:58:47;;;;;;;;;;;;;;;21.41;43.03;102341.75;5113523;27;4138;-62
2022/05/09 02:01:15;;;;;;;;;;;;;;;21.40;43.09;102340.28;5111456;27;5273;-62
2022/05/09 02:03:44;;;;;;;;;;;;;;;21.41;43.04;102346.78;5109928;27;4134;-62
2022/05/09 02:06:15;;;;;;;;;;;;;;;21.40;43.14;102346.03;5115412;27;4205;-62
2022/05/09 02:08:41;;;;;;;;;;;;;;;21.40;43.00;102353.91;5116796;27;4088;-62
2022/05/09 02:11:08;;;;;;;;;;;;;;;21.38;42.96;102351.63;5115567;27;4296;-62
2022/05/09 02:13:34;;;;;;;;;;;;;;;21.39;43.22;102350.25;5116064;27;4064;-62
2022/05/09 02:16:00;;;;;;;;;;;;;;;21.38;43.08;102353.78;5118636;27;4053;-62
2022/05/09 02:18:27;;;;;;;;;;;;;;;21.37;43.10;102347.22;5113918;27;4176;-62
2022/05/09 02:20:53;;;;;;;;;;;;;;;21.38;43.11;102356.66;5113926;27;4241;-62
2022/05/09 02:23:20;;;;;;;;;;;;;;;21.37;43.14;102358.75;5113700;27;4188;-62
2022/05/09 02:25:46;;;;;;;;;;;;;;;21.37;43.15;102360.88;5110257;27;4232;-62
2022/05/09 02:28:13;;;;;;;;;;;;;;;21.34;42.96;102352.09;5117221;27;5261;-63
2022/05/09 02:30:39;;;;;;;;;;;;;;;21.34;43.03;102357.88;5117801;27;5232;-62
2022/05/09 02:33:05;;;;;;;;;;;;;;;21.33;43.10;102359.25;5117670;27;4520;-64
2022/05/09 02:35:32;;;;;;;;;;;;;;;21.34;42.89;102354.97;5116296;27;4218;-62
2022/05/09 02:37:58;;;;;;;;;;;;;;;21.33;42.99;102358.50;5117546;27;4162;-62
2022/05/09 02:40:25;;;;;;;;;;;;;;;21.33;42.97;102353.50;5114203;27;4180;-62
2022/05/09 02:42:56;;;;;;;;;;;;;;;21.33;43.13;102359.25;5114626;27;4320;-62
2022/05/09 02:45:22;;;;;;;;;;;;;;;21.32;42.98;102354.84;5113217;27;5442;-62
2022/05/09 02:47:48;;;;;;;;;;;;;;;21.31;42.86;102356.22;5112191;27;4050;-62
2022/05/09 02:50:15;;;;;;;;;;;;;;;21.30;42.95;102360.50;5115517;27;4165;-62
2022/05/09 02:52:42;;;;;;;;;;;;;;;21.32;43.08;102366.38;5114186;27;4449;-62
2022/05/09 02:55:08;;;;;;;;;;;;;;;21.31;42.92;102359.13;5113360;27;4247;-62
2022/05/09 02:57:35;;;;;;;;;;;;;;;21.32;42.95;102365.63;5113987;27;5029;-62
2022/05/09 03:00:05;;;;;;;;;;;;;;;21.32;43.22;102369.25;5114845;27;4160;-62
2022/05/09 03:02:32;;;;;;;;;;;;;;;21.32;43.40;102363.50;5113734;27;4079;-62
2022/05/09 03:04:59;;;;;;;;;;;;;;;21.33;43.38;102370.78;5115071;27;5250;-62
2022/05/09 03:07:25;;;;;;;;;;;;;;;21.36;43.15;102370.91;5114988;27;4200;-62
2022/05/09 03:09:51;;;;;;;;;;;;;;;21.36;43.34;102368.03;5113696;27;4209;-62
2022/05/09 03:12:19;;;;;;;;;;;;;;;21.34;43.34;102371.53;5116861;28;4185;-62
2022/05/09 03:14:46;;;;;;;;;;;;;;;21.36;43.25;102374.56;5113004;27;4151;-62
2022/05/09 03:17:12;;;;;;;;;;;;;;;21.37;43.27;102372.41;5113114;27;4383;-63
2022/05/09 03:19:39;;;;;;;;;;;;;;;21.37;43.37;102375.28;5112594;27;4121;-62
2022/05/09 03:22:05;;;;;;;;;;;;;;;21.37;43.24;102376.03;5115568;27;4042;-62
2022/05/09 03:24:31;;;;;;;;;;;;;;;21.37;43.21;102375.28;5113310;27;4208;-62
2022/05/09 03:27:03;;;;;;;;;;;;;;;21.38;43.33;102371.06;5113514;27;4235;-62
2022/05/09 03:29:30;;;;;;;;;;;;;;;21.36;43.31;102373.81;5116007;27;4156;-62
2022/05/09 03:31:56;;;;;;;;;;;;;;;21.37;43.26;102386.81;5116787;27;4362;-62
2022/05/09 03:34:23;;;;;;;;;;;;;;;21.37;43.22;102387.56;5078046;27;974481;-62
2022/05/09 03:36:51;;;;;;;;;;;;;;;21.37;43.16;102383.94;5115096;27;4220;-62
2022/05/09 03:39:18;;;;;;;;;;;;;;;21.36;43.45;102394.72;5114614;27;4242;-62
2022/05/09 03:41:45;;;;;;;;;;;;;;;21.37;43.31;102395.47;5114181;27;5599;-62
2022/05/09 03:44:13;;;;;;;;;;;;;;;21.36;43.18;102391.09;5113566;27;4337;-62
2022/05/09 03:46:41;;;;;;;;;;;;;;;21.34;43.21;102392.44;5114407;27;4222;-62
2022/05/09 03:49:08;;;;;;;;;;;;;;;21.34;43.40;102392.44;5115474;27;5227;-62
2022/05/09 03:51:35;;;;;;;;;;;;;;;21.34;43.27;102383.81;5116191;27;4426;-62
2022/05/09 03:54:01;;;;;;;;;;;;;;;21.36;43.13;102379.56;5114675;27;4039;-62
2022/05/09 03:56:27;;;;;;;;;;;;;;;21.36;43.31;102391.09;5112485;27;4215;-62
2022/05/09 03:58:54;;;;;;;;;;;;;;;21.33;43.28;102388.06;5115431;27;4041;-62
2022/05/09 04:01:21;;;;;;;;;;;;;;;21.34;43.06;102389.56;5114589;27;4302;-62
2022/05/09 04:03:47;;;;;;;;;;;;;;;21.34;43.11;102383.06;5114880;27;4072;-62
2022/05/09 04:06:14;;;;;;;;;;;;;;;21.34;43.16;102389.56;5114972;27;4224;-62
2022/05/09 04:08:40;;;;;;;;;;;;;;;21.34;43.05;102389.56;5116238;27;4214;-62
2022/05/09 04:11:06;;;;;;;;;;;;;;;21.34;43.24;102388.81;5108235;27;4180;-62
2022/05/09 04:13:33;;;;;;;;;;;;;;;21.34;43.18;102394.59;5114340;27;4145;-62
2022/05/09 04:18:45;;;;;;;;;;;;;;;21.34;43.22;102389.56;5114510;27;4214;-62
2022/05/09 04:21:11;;;;;;;;;;;;;;;21.33;43.28;102396.72;5108462;27;4036;-63
2022/05/09 04:23:38;;;;;;;;;;;;;;;21.34;43.33;102400.34;5113604;27;4023;-63
2022/05/09 04:26:05;;;;;;;;;;;;;;;21.34;43.48;102398.22;5112236;27;4246;-63
2022/05/09 04:28:31;;;;;;;;;;;;;;;21.37;43.34;102392.59;5115991;27;4664;-62
2022/05/09 04:30:59;;;;;;;;;;;;;;;21.38;43.36;102397.00;5117808;27;4206;-62
2022/05/09 04:33:28;;;;;;;;;;;;;;;21.38;43.65;102394.09;5116261;27;5331;-63
2022/05/09 04:35:54;;;;;;;;;;;;;;;21.30;44.28;102395.09;5107141;27;4146;-64
2022/05/09 04:38:22;;;;;;;;;;;;;;;21.24;44.05;102405.44;5118485;27;5297;-62
2022/05/09 04:40:51;;;;;;;;;;;;;;;21.21;44.33;102395.91;5107421;27;4220;-62
2022/05/09 04:43:25;;;;;;;;;;;;;;;21.21;44.22;102398.78;5112632;27;4338;-63
2022/05/09 04:45:51;;;;;;;;;;;;;;;21.21;44.31;102393.03;5116681;27;4221;-63
2022/05/09 04:48:19;;;;;;;;;;;;;;;21.26;44.18;102399.81;5115295;27;4213;-63
2022/05/09 04:50:45;;;;;;;;;;;;;;;21.23;44.32;102389.50;5117683;27;4220;-63
2022/05/09 04:53:11;;;;;;;;;;;;;;;21.20;43.94;102396.50;5117856;27;4227;-64
2022/05/09 04:55:38;;;;;;;;;;;;;;;21.17;44.00;102398.50;5112002;27;4161;-62
2022/05/09 04:58:05;;;;;;;;;;;;;;;21.30;43.81;102402.94;5111889;27;4173;-62
2022/05/09 05:00:31;;;;;;;;;;;;;;;20.82;39.34;102404.03;5116869;27;4963;-61
2022/05/09 05:02:57;;;;;;;;;;;;;;;20.77;40.06;102411.63;5116232;27;4227;-62
2022/05/09 05:05:47;;;;;;;;;;;;;;;20.01;41.40;102409.16;5088418;27;4063;-65
2022/05/09 05:08:14;;;;;;;;;;;;;;;19.49;42.22;102398.13;5095330;27;4161;-60
2022/05/09 05:10:41;;;;;;;;;;;;;;;19.34;42.48;102404.19;5116619;27;4098;-60
2022/05/09 05:13:07;;;;;;;;;;;;;;;19.31;42.61;102411.13;5116124;27;5248;-60
2022/05/09 05:15:33;;;;;;;;;;;;;;;19.24;42.85;102402.06;5110005;27;4241;-70
2022/05/09 05:18:00;;;;;;;;;;;;;;;19.59;42.81;102413.28;5110815;27;4222;-69
2022/05/09 05:20:26;;;;;;;;;;;;;;;19.90;42.61;102406.16;5113212;27;4130;-69
2022/05/09 05:22:53;;;;;;;;;;;;;;;19.93;42.30;102411.47;5116707;27;4207;-67
2022/05/09 05:25:23;;;;;;;;;;;;;;;20.03;42.18;102409.31;5112300;27;4256;-68
2022/05/09 05:27:50;;;;;;;;;;;;;;;20.16;42.13;102410.94;5113723;27;3983;-68
2022/05/09 05:30:16;;;;;;;;;;;;;;;20.54;41.96;102411.41;5115105;27;5704;-67
2022/05/09 05:32:43;;;;;;;;;;;;;;;20.82;42.04;102416.31;5111738;27;4200;-62
2022/05/09 05:35:11;;;;;;;;;;;;;;;20.86;41.53;102410.81;5113615;27;4148;-62
2022/05/09 05:37:37;;;;;;;;;;;;;;;20.86;41.57;102410.81;5115616;27;4211;-63
2022/05/09 05:40:04;;;;;;;;;;;;;;;20.87;41.75;102403.69;5115578;27;4329;-67
2022/05/09 05:42:31;;;;;;;;;;;;;;;20.88;41.72;102419.59;5115696;27;4158;-68
2022/05/09 05:44:58;;;;;;;;;;;;;;;20.88;41.73;102419.59;5110422;27;4231;-67
2022/05/09 05:47:24;;;;;;;;;;;;;;;20.90;42.07;102419.00;5107636;27;4229;-68
2022/05/09 05:49:50;;;;;;;;;;;;;;;20.92;42.46;102414.13;5109325;27;4235;-68
2022/05/09 05:52:17;;;;;;;;;;;;;;;21.00;42.81;102418.94;5109942;27;6298;-68
2022/05/09 05:54:44;;;;;;;;;;;;;;;21.00;42.71;102413.91;5113169;27;4294;-67
2022/05/09 05:57:18;;;;;;;;;;;;;;;20.98;42.43;102415.91;5112800;27;5338;-72
2022/05/09 05:59:55;;;;;;;;;;;;;;;20.37;41.78;102418.91;5114933;27;4234;-73
2022/05/09 06:02:21;;;;;;;;;;;;;;;20.56;41.42;102428.84;5112775;27;5389;-73
2022/05/09 06:04:47;;;;;;;;;;;;;;;20.74;41.66;102427.25;5114337;27;4239;-73
2022/05/09 06:07:14;;;;;;;;;;;;;;;20.82;42.28;102427.06;5114962;27;4557;-72
2022/05/09 06:09:40;;;;;;;;;;;;;;;20.87;42.58;102420.22;5116656;27;4241;-72
2022/05/09 06:12:07;;;;;;;;;;;;;;;20.91;42.93;102429.91;5118141;27;4343;-71
2022/05/09 06:14:33;;;;;;;;;;;;;;;20.95;42.86;102428.66;5118529;27;4228;-73
2022/05/09 06:16:59;;;;;;;;;;;;;;;20.97;42.76;102432.44;5113748;27;4254;-73
2022/05/09 06:19:26;;;;;;;;;;;;;;;20.99;42.56;102428.94;5115575;27;4369;-73
2022/05/09 06:21:52;;;;;;;;;;;;;;;21.01;42.81;102426.22;5116836;27;4316;-73
2022/05/09 06:24:19;;;;;;;;;;;;;;;21.03;42.56;102435.00;5116341;27;4313;-72
2022/05/09 06:26:45;;;;;;;;;;;;;;;21.04;42.61;102430.72;5113758;27;4283;-77
2022/05/09 06:29:11;;;;;;;;;;;;;;;21.02;43.24;102427.72;5111561;27;4296;-77
2022/05/09 06:31:38;;;;;;;;;;;;;;;21.01;43.84;102426.22;5114883;27;4227;-78
2022/05/09 06:34:04;;;;;;;;;;;;;;;21.05;43.63;102438.00;5115875;27;4243;-77
2022/05/09 06:36:34;;;;;;;;;;;;;;;21.06;43.25;102433.75;5111959;27;4123;-77
2022/05/09 06:39:00;;;;;;;;;;;;;;;21.07;42.98;102441.78;5117327;27;5335;-72
2022/05/09 06:41:27;;;;;;;;;;;;;;;21.09;42.65;102433.25;5116696;27;4155;-72
2022/05/09 06:43:53;;;;;;;;;;;;;;;21.10;42.51;102440.56;5113127;27;4008;-72
2022/05/09 06:46:19;;;;;;;;;;;;;;;21.04;42.58;102442.25;5113480;27;4067;-65
2022/05/09 06:48:46;;;;;;;;;;;;;;;21.06;42.39;102439.53;5118920;27;4180;-69
2022/05/09 06:51:13;;;;;;;;;;;;;;;21.09;42.54;102432.50;5114681;27;4196;-68
2022/05/09 06:53:39;;;;;;;;;;;;;;;21.10;42.49;102445.56;5117046;27;4243;-67
2022/05/09 06:56:08;;;;;;;;;;;;;;;21.10;42.15;102445.56;5108866;27;4200;-69
2022/05/09 06:58:35;;;;;;;;;;;;;;;21.08;41.83;102434.66;5112043;27;4111;-68
2022/05/09 07:01:08;;;;;;;;;;;;;;;21.16;43.05;102440.19;5115753;27;4266;-68
2022/05/09 07:03:35;;;;;;;;;;;;;;;21.30;42.62;102435.41;5096438;27;4198;-67
2022/05/09 07:06:01;;;;;;;;;;;;;;;21.47;42.42;102448.06;5112384;27;4317;-66
2022/05/09 07:08:32;;;;;;;;;;;;;;;21.56;42.04;102440.72;5113685;27;5399;-66
2022/05/09 07:10:59;;;;;;;;;;;;;;;21.59;41.69;102448.13;5115465;27;4289;-65
2022/05/09 07:13:39;;;;;;;;;;;;;;;21.57;41.45;102445.84;5115649;27;4223;-65
2022/05/09 07:16:05;;;;;;;;;;;;;;;21.89;40.59;102440.72;5111815;27;4244;-64
2022/05/09 07:18:32;;;;;;;;;;;;;;;21.98;40.33;102442.00;5111510;27;4066;-66
2022/05/09 07:20:59;;;;;;;;;;;;;;;22.03;39.85;102441.63;5115217;28;4209;-65
2022/05/09 07:23:25;;;;;;;;;;;;;;;22.14;40.14;102449.56;5116831;28;4204;-65
2022/05/09 07:25:52;;;;;;;;;;;;;;;22.18;39.91;102444.06;5114020;27;5323;-66
2022/05/09 07:28:21;;;;;;;;;;;;;;;22.22;39.70;102442.81;5115276;28;4239;-63
2022/05/09 07:30:47;;;;;;;;;;;;;;;22.24;39.34;102442.97;5114225;27;4230;-68
2022/05/09 07:33:14;;;;;;;;;;;;;;;22.27;39.17;102441.72;5113153;27;4323;-67
2022/05/09 07:35:42;;;;;;;;;;;;;;;22.29;39.19;102444.75;5110771;27;4175;-65
2022/05/09 07:38:08;;;;;;;;;;;;;;;22.29;39.08;102447.63;5115463;28;4042;-65
2022/05/09 07:40:35;;;;;;;;;;;;;;;22.23;39.35;102438.59;5113759;27;4123;-67
2022/05/09 07:43:01;;;;;;;;;;;;;;;22.21;39.08;102447.06;5117158;27;4246;-68
2022/05/09 07:45:27;;;;;;;;;;;;;;;22.21;38.99;102441.31;5109806;27;4133;-67
2022/05/09 07:47:54;;;;;;;;;;;;;;;21.91;38.94;102438.72;5110523;28;4145;-65
2022/05/09 07:50:20;;;;;;;;;;;;;;;21.70;39.27;102442.41;5112252;27;4220;-65
2022/05/09 07:52:47;;;;;;;;;;;;;;;21.58;39.35;102435.06;5112205;27;4191;-65
2022/05/09 07:55:15;;;;;;;;;;;;;;;21.65;40.17;102437.75;5107329;27;4147;-62
2022/05/09 07:57:41;;;;;;;;;;;;;;;21.80;39.83;102441.56;5114183;28;5228;-63
2022/05/09 08:00:07;;;;;;;;;;;;;;;21.90;39.41;102436.47;5113525;28;4150;-63
2022/05/09 08:02:34;;;;;;;;;;;;;;;21.96;39.58;102436.84;5115947;28;5361;-62
2022/05/09 08:05:01;;;;;;;;;;;;;;;22.01;39.88;102429.97;5112997;27;4076;-62
2022/05/09 08:07:27;;;;;;;;;;;;;;;22.03;39.39;102438.75;5115628;27;5243;-65
2022/05/09 08:09:53;;;;;;;;;;;;;;;22.04;38.97;102425.09;5119993;27;5367;-66
2022/05/09 08:12:20;;;;;;;;;;;;;;;22.07;39.22;102427.47;5095574;27;4170;-68
2022/05/09 08:14:46;;;;;;;;;;;;;;;22.10;39.06;102431.97;5120707;27;4229;-68
2022/05/09 08:17:13;;;;;;;;;;;;;;;22.09;39.29;102427.59;5114064;27;4580;-64
2022/05/09 08:19:39;;;;;;;;;;;;;;;22.12;39.15;102428.47;5117196;27;5311;-62
2022/05/09 08:22:07;;;;;;;;;;;;;;;22.15;39.31;102419.34;5118224;27;4064;-62
2022/05/09 08:24:42;;;;;;;;;;;;;;;22.16;39.18;102426.63;5118492;27;4220;-59
2022/05/09 08:27:08;;;;;;;;;;;;;;;22.18;38.81;102420.97;5114441;27;4174;-60
2022/05/09 08:29:35;;;;;;;;;;;;;;;22.20;38.95;102422.50;5118444;27;4206;-60
2022/05/09 08:32:01;;;;;;;;;;;;;;;22.17;38.97;102425.25;5118656;27;4219;-60
2022/05/09 08:34:28;;;;;;;;;;;;;;;22.20;38.99;102422.50;5116384;27;4278;-60
2022/05/09 08:36:55;;;;;;;;;;;;;;;22.18;38.93;102426.75;5115851;27;4251;-61
2022/05/09 08:39:23;;;;;;;;;;;;;;;22.17;38.72;102421.59;5116835;27;4190;-59
2022/05/09 08:41:49;;;;;;;;;;;;;;;22.05;38.78;102412.91;5118322;27;4139;-59
2022/05/09 08:44:27;;;;;;;;;;;;;;;21.84;39.12;102421.66;5116212;27;5343;-60
2022/05/09 08:47:13;;;;;;;;;;;;;;;21.80;39.09;102415.59;5102907;27;4275;-61
2022/05/09 08:49:51;;;;;;;;;;;;;;;21.73;39.11;102412.31;5117620;27;4286;-59
2022/05/09 08:52:21;;;;;;;;;;;;;;;21.71;38.87;102420.84;5105224;27;4281;-60
2022/05/09 08:54:48;;;;;;;;;;;;;;;21.69;39.19;102417.84;5118408;27;4038;-60
2022/05/09 08:57:16;;;;;;;;;;;;;;;21.67;39.34;102420.59;5101730;27;4002;-60
2022/05/09 08:59:46;;;;;;;;;;;;;;;21.57;39.27;102410.50;5105362;27;4116;-60
2022/05/09 09:02:14;;;;;;;;;;;;;;;21.59;39.45;102407.75;5105775;27;4169;-60
2022/05/09 09:04:40;;;;;;;;;;;;;;;21.59;39.47;102420.03;5119243;27;4194;-60
2022/05/09 09:07:18;;;;;;;;;;;;;;;21.60;39.30;102412.91;5100655;27;4156;-65
2022/05/09 09:10:04;;;;;;;;;;;;;;;21.59;39.15;102402.75;5099990;27;4174;-64
2022/05/09 09:12:36;;;;;;;;;;;;;;;21.56;39.30;102409.75;5118641;27;4143;-64
2022/05/09 09:15:21;;;;;;;;;;;;;;;21.53;39.33;102403.13;5094779;27;5316;-64
2022/05/09 09:18:06;;;;;;;;;;;;;;;21.50;39.37;102397.81;5113764;27;4163;-61
2022/05/09 09:20:41;;;;;;;;;;;;;;;21.49;39.13;102402.09;5118382;27;4314;-60
2022/05/09 09:23:14;;;;;;;;;;;;;;;21.50;39.11;102400.69;5106547;27;5252;-61
2022/05/09 09:25:59;;;;;;;;;;;;;;;21.50;39.12;102412.22;5115535;27;4237;-60
2022/05/09 09:28:27;;;;;;;;;;;;;;;21.49;39.22;102404.97;5117532;27;4164;-61
2022/05/09 09:30:53;;;;;;;;;;;;;;;21.50;38.96;102406.47;5117119;27;4102;-62
2022/05/09 09:33:20;;;;;;;;;;;;;;;21.45;39.92;102401.81;5102155;27;5101;-62
2022/05/09 09:36:01;;;;;;;;;;;;;;;21.46;38.62;102406.19;5115898;27;3999;-61
2022/05/09 09:38:40;;;;;;;;;;;;;;;21.56;42.76;102404.00;5101405;27;4045;-64
2022/05/09 09:41:20;;;;;;;;;;;;;;;21.70;40.21;102398.41;5101901;27;4135;-64
2022/05/09 09:43:46;;;;;;;;;;;;;;;21.67;38.05;102397.53;5117324;27;5441;-64
2022/05/09 09:46:12;;;;;;;;;;;;;;;21.68;37.36;102396.13;5112652;27;5424;-64
2022/05/09 09:48:41;;;;;;;;;;;;;;;21.74;37.25;102390.03;5100350;27;4000;-64
2022/05/09 09:51:11;;;;;;;;;;;;;;;21.80;38.11;102395.44;5116757;27;5500;-66
2022/05/09 09:53:41;;;;;;;;;;;;;;;21.80;37.04;102393.28;5111191;27;5457;-68
2022/05/09 09:56:09;;;;;;;;;;;;;;;21.80;37.14;102390.41;5113420;27;4227;-69
2022/05/09 09:58:38;;;;;;;;;;;;;;;21.80;37.54;102386.78;5118249;27;4146;-70
2022/05/09 10:01:08;;;;;;;;;;;;;;;21.81;37.20;102385.41;5122974;27;4147;-69
2022/05/09 10:03:38;;;;;;;;;;;;;;;21.83;37.38;102380.53;5121944;27;4180;-63
2022/05/09 10:06:11;;;;;;;;;;;;;;;21.86;37.30;102381.41;5116393;27;4269;-65
2022/05/09 10:08:38;;;;;;;;;;;;;;;21.92;37.82;102373.91;5105751;27;4077;-69
2022/05/09 10:11:10;;;;;;;;;;;;;;;21.95;37.35;102380.53;5107522;27;4229;-66
2022/05/09 10:13:44;;;;;;;;;;;;;;;21.90;36.71;102375.91;5121294;27;4264;-65
2022/05/09 10:16:13;;;;;;;;;;;;;;;21.90;37.03;102362.22;5100651;27;5279;-68
2022/05/09 10:18:43;;;;;;;;;;;;;;;21.78;37.40;102367.19;5118355;27;4197;-68
2022/05/09 10:27:06;;;;;;;;;;;;;;;22.02;37.19;102362.25;5105127;27;4210;-67
2022/05/09 10:29:36;;;;;;;;;;;;;;;22.13;37.55;102349.22;5106715;27;5256;-65
2022/05/09 10:32:04;;;;;;;;;;;;;;;22.32;37.43;102348.25;5109286;27;4314;-65
2022/05/09 10:34:51;;;;;;;;;;;;;;;22.46;37.18;102340.47;5099977;27;5151;-65
2022/05/09 10:37:20;;;;;;;;;;;;;;;22.51;37.50;102339.31;5115148;27;4033;-65
2022/05/09 10:39:49;;;;;;;;;;;;;;;22.55;37.99;102333.06;5100409;27;4251;-66
2022/05/09 10:42:24;;;;;;;;;;;;;;;22.55;37.86;102333.81;5104721;27;4329;-68
2022/05/09 10:44:50;;;;;;;;;;;;;;;22.57;38.16;102333.94;5106086;27;5233;-67
2022/05/09 10:47:19;;;;;;;;;;;;;;;22.58;38.24;102328.91;5118405;27;4176;-67
2022/05/09 10:49:47;;;;;;;;;;;;;;;22.55;38.04;102328.03;5119428;27;4162;-66
2022/05/09 10:52:17;;;;;;;;;;;;;;;22.57;37.98;102321.63;5117378;27;5277;-66
2022/05/09 10:54:45;;;;;;;;;;;;;;;22.55;38.14;102330.16;5106389;27;4157;-66
2022/05/09 10:57:20;;;;;;;;;;;;;;;22.59;37.93;102328.28;5104717;27;4211;-67
2022/05/09 11:00:11;;;;;;;;;;;;;;;22.64;38.37;102316.97;5104451;27;5001;-65
2022/05/09 11:02:48;;;;;;;;;;;;;;;22.62;38.36;102316.84;5104406;27;4354;-64
2022/05/09 11:05:14;;;;;;;;;;;;;;;22.65;38.39;102304.03;5114548;27;5289;-64
2022/05/09 11:08:02;;;;;;;;;;;;;;;22.65;37.86;102307.66;5118084;27;4191;-64
2022/05/09 11:10:37;;;;;;;;;;;;;;;22.77;39.18;102296.09;5117716;27;5340;-65
2022/05/09 11:13:12;;;;;;;;;;;;;;;22.90;37.90;102300.44;5120852;27;4200;-64
2022/05/09 11:15:45;;;;;;;;;;;;;;;22.81;37.96;102293.44;5116321;27;4142;-64
2022/05/09 11:18:21;;;;;;;;;;;;;;;22.82;38.04;102283.41;5117647;27;5428;-64
2022/05/09 11:20:51;;;;;;;;;;;;;;;22.72;38.67;102291.47;5104483;28;4185;-65
2022/05/09 11:23:27;;;;;;;;;;;;;;;22.71;38.16;102284.19;5118310;28;4196;-66
2022/05/09 11:26:12;;;;;;;;;;;;;;;22.75;37.98;102279.41;5117798;27;4257;-65
2022/05/09 11:28:55;;;;;;;;;;;;;;;22.74;37.93;102271.38;5121504;28;4330;-65
2022/05/09 11:31:33;;;;;;;;;;;;;;;22.80;39.10;102265.97;5104058;28;5239;-66
2022/05/09 11:34:08;;;;;;;;;;;;;;;22.93;38.74;102265.28;5104198;27;4396;-64
2022/05/09 11:36:46;;;;;;;;;;;;;;;23.12;38.72;102269.25;5095452;27;5258;-63
2022/05/09 11:39:32;;;;;;;;;;;;;;;23.02;37.78;102260.00;5113381;27;5220;-65
2022/05/09 11:44:57;;;;;;;;;;;;;;;22.77;38.31;102262.19;5120301;27;4161;-62
2022/05/09 11:47:27;;;;;;;;;;;;;;;22.91;39.07;102262.28;5099604;27;4172;-62
2022/05/09 11:49:57;;;;;;;;;;;;;;;23.13;38.83;102264.97;5102914;27;4811;-61
2022/05/09 11:52:25;;;;;;;;;;;;;;;23.14;38.55;102263.59;5105499;27;4195;-61
2022/05/09 11:54:52;;;;;;;;;;;;;;;23.14;37.83;102260.72;5107908;27;4231;-64
2022/05/09 11:57:25;;;;;;;;;;;;;;;23.09;38.11;102256.06;5102365;27;5197;-64
2022/05/09 11:59:54;;;;;;;;;;;;;;;23.16;37.84;102252.16;5109757;27;4256;-63
2022/05/09 12:02:38;;;;;;;;;;;;;;;23.03;36.84;102249.97;5102678;27;5253;-64
2022/05/09 12:05:39;;;;;;;;;;;;;;;22.69;37.68;102246.53;5110908;27;4066;-58
2022/05/09 12:08:08;;;;;;;;;;;;;;;22.49;37.07;102241.03;5117488;27;4165;-59
2022/05/09 12:10:35;;;;;;;;;;;;;;;22.40;37.95;102250.59;5118926;27;4171;-64
2022/05/09 12:13:04;;;;;;;;;;;;;;;22.38;37.40;102247.63;5106694;27;6237;-66
2022/05/09 12:15:33;;;;;;;;;;;;;;;22.35;37.42;102243.09;5110663;27;4277;-64
2022/05/09 12:18:05;;;;;;;;;;;;;;;22.40;36.26;102253.50;5116183;27;5434;-65
2022/05/09 12:20:37;;;;;;;;;;;;;;;22.48;36.21;102245.31;5116500;27;4140;-67
2022/05/09 12:23:04;;;;;;;;;;;;;;;22.51;35.60;102238.28;5118201;27;4614;-64
2022/05/09 12:25:36;;;;;;;;;;;;;;;22.52;34.97;102242.69;5095581;27;4124;-63
2022/05/09 12:28:21;;;;;;;;;;;;;;;22.55;35.02;102232.00;5118468;27;6420;-67
2022/05/09 12:30:52;;;;;;;;;;;;;;;22.54;33.76;102230.50;5119545;27;4212;-69
2022/05/09 12:33:36;;;;;;;;;;;;;;;22.55;34.59;102235.63;5118002;27;4182;-67
2022/05/09 12:36:08;;;;;;;;;;;;;;;22.52;34.08;102228.25;5100940;27;4354;-66
2022/05/09 12:38:36;;;;;;;;;;;;;;;22.52;34.50;102219.59;5115652;27;4055;-67
2022/05/09 12:41:10;;;;;;;;;;;;;;;22.57;35.06;102218.44;5117527;27;4274;-68
2022/05/09 12:43:37;;;;;;;;;;;;;;;22.56;35.12;102228.50;5121659;27;4133;-69
2022/05/09 12:46:03;;;;;;;;;;;;;;;22.53;34.01;102217.44;5102523;27;3989;-68
2022/05/09 12:48:30;;;;;;;;;;;;;;;22.57;34.94;102206.91;5113719;27;3908;-68
2022/05/09 12:51:06;;;;;;;;;;;;;;;22.53;34.90;102212.41;5112647;27;5344;-67
2022/05/09 12:53:33;;;;;;;;;;;;;;;22.55;34.80;102211.81;5090064;27;4120;-63
2022/05/09 12:55:59;;;;;;;;;;;;;;;22.56;34.50;102202.50;5099884;27;5560;-71
2022/05/09 12:58:33;;;;;;;;;;;;;;;22.65;33.66;102194.31;5105160;27;4034;-68
2022/05/09 13:01:06;;;;;;;;;;;;;;;22.66;34.41;102190.06;5118444;27;4233;-68
2022/05/09 13:03:53;;;;;;;;;;;;;;;22.58;34.12;102185.28;5116214;27;4040;-69
2022/05/09 13:06:23;;;;;;;;;;;;;;;22.63;34.36;102186.31;5115685;27;4179;-66
2022/05/09 13:08:49;;;;;;;;;;;;;;;22.75;34.14;102183.38;5113235;27;5228;-66
2022/05/09 13:11:17;;;;;;;;;;;;;;;22.74;33.80;102178.97;5116407;27;4227;-67